Isle of Rum, United Kingdom
Current Conditions -  °F | °C
As of 8:20 PM on Thursday 23 Oct 2014 (Local Time) from EGPU Reporting Station
Few Clouds Few Clouds  
Wind Chill: 11°   Ceiling: Unl
Heat Index: 11°   Visibility: 6mi
Dew Point:   Wind: 22mph
Humidity: 82%   Direction: 250°WSW
Pressure: 29.65"   Gusts: NA
Location:  57.01°N, 6.28°W
Report Text: EGPU 231920Z AUTO 25019KT 9999 FEW038/// 11/08 Q1004 RERA
Loading
Personal Weather Stations






























Interactive Weather Map
Tropical Storm Tracking
New forecast layout! Learn more

10-Day Weather Forecast

Advertisements
Track Severe Weather on mobile